Time;durP1;ratioP1;P1;durP2;ratioP2;P2;SDS_P1;SDS_P2;PMS_P1;PMS_P2;Temp;Humidity;BMP_temperature;BMP_pressure;BME280_temperature;BME280_humidity;BME280_pressure;Samples;Min_cycle;Max_cycle;Signal;HPM_P1;HPM_P2
2024/03/17 00:00:00;;;;;;;7.82;4.20;;;14.50;99.90;;;;;;7406811;19;20003;-75
2024/03/17 00:02:28;;;;;;;9.95;3.67;;;14.50;99.90;;;;;;7385253;19;20011;-75
2024/03/17 00:04:57;;;;;;;9.35;3.90;;;14.50;99.90;;;;;;7384923;19;20243;-78
2024/03/17 00:07:23;;;;;;;12.77;4.47;;;14.50;99.90;;;;;;7384526;19;20006;-76
2024/03/17 00:09:55;;;;;;;16.70;5.50;;;14.50;99.90;;;;;;7385521;19;20028;-75
2024/03/17 00:12:20;;;;;;;;;;;14.50;99.90;;;;;;7409269;19;19998;-75
2024/03/17 00:14:52;;;;;;;14.48;6.05;;;14.50;99.90;;;;;;7386088;19;20226;-76
2024/03/17 00:17:20;;;;;;;14.95;5.93;;;14.50;99.90;;;;;;7386120;19;20003;-75
2024/03/17 00:19:49;;;;;;;30.00;6.68;;;14.50;99.90;;;;;;7385392;19;20279;-76
2024/03/17 00:22:15;;;;;;;13.10;5.20;;;14.50;99.90;;;;;;7385489;19;20400;-76
2024/03/17 00:24:46;;;;;;;21.42;4.90;;;14.50;99.90;;;;;;7385328;19;20023;-76
2024/03/17 00:27:14;;;;;;;12.60;5.30;;;14.50;99.90;;;;;;7407730;19;20346;-76
2024/03/17 00:29:43;;;;;;;14.88;4.80;;;14.50;99.90;;;;;;7385078;19;20361;-76
2024/03/17 00:32:11;;;;;;;12.32;4.45;;;14.50;99.90;;;;;;7384592;19;20032;-76
2024/03/17 00:34:40;;;;;;;11.85;5.28;;;14.50;99.90;;;;;;7384846;19;20019;-76
2024/03/17 00:37:08;;;;;;;15.30;5.53;;;14.50;99.90;;;;;;7386161;19;20006;-76
2024/03/17 00:39:39;;;;;;;13.40;5.00;;;14.50;99.90;;;;;;7385745;19;20011;-76
2024/03/17 00:42:06;;;;;;;12.43;5.30;;;14.50;99.90;;;;;;7407470;19;20366;-77
2024/03/17 00:44:38;;;;;;;22.77;6.50;;;14.40;99.90;;;;;;7385268;19;20394;-76
2024/03/17 00:47:03;;;;;;;;;;;14.40;99.90;;;;;;7384177;19;20007;-74
2024/03/17 00:49:32;;;;;;;19.58;5.82;;;14.40;99.90;;;;;;7384014;19;19923;-76
2024/03/17 00:51:58;;;;;;;14.75;4.65;;;14.30;99.90;;;;;;7383617;19;20014;-75
2024/03/17 00:54:27;;;;;;;12.35;5.63;;;14.20;99.90;;;;;;7406869;19;20007;-77
2024/03/17 00:56:53;;;;;;;16.70;5.93;;;14.20;99.90;;;;;;7385496;19;20003;-74
2024/03/17 00:59:22;;;;;;;10.93;5.70;;;14.20;99.90;;;;;;7384661;19;20009;-75
2024/03/17 01:01:50;;;;;;;20.20;5.72;;;14.30;99.90;;;;;;7384664;19;20007;-76
2024/03/17 01:04:19;;;;;;;15.10;5.40;;;14.30;99.90;;;;;;7382557;19;20417;-75
2024/03/17 01:06:45;;;;;;;17.60;6.55;;;14.30;99.90;;;;;;7383778;19;20033;-76
2024/03/17 01:09:14;;;;;;;18.50;8.07;;;14.30;99.90;;;;;;7405511;19;20281;-76
2024/03/17 01:11:43;;;;;;;25.20;9.35;;;14.30;99.90;;;;;;7383284;19;20304;-75
2024/03/17 01:14:13;;;;;;;25.50;8.32;;;14.40;99.90;;;;;;7382931;19;20017;-76
2024/03/17 01:16:39;;;;;;;20.10;8.38;;;14.40;99.90;;;;;;7382550;19;20315;-75
2024/03/17 01:19:10;;;;;;;17.38;8.95;;;14.40;99.90;;;;;;7383083;19;20006;-76
2024/03/17 01:21:37;;;;;;;24.92;9.80;;;14.40;99.90;;;;;;7383596;19;20095;-75
2024/03/17 01:24:06;;;;;;;23.15;8.48;;;14.40;99.90;;;;;;7404950;19;20010;-75
2024/03/17 01:26:32;;;;;;;22.27;8.25;;;14.40;99.90;;;;;;7381494;19;20283;-76
2024/03/17 01:29:01;;;;;;;24.75;7.95;;;14.40;99.90;;;;;;7382869;19;20002;-76
2024/03/17 01:31:30;;;;;;;21.83;7.30;;;14.40;99.90;;;;;;7382796;19;20475;-75
2024/03/17 01:33:59;;;;;;;14.45;6.65;;;14.40;99.90;;;;;;7382590;19;20304;-74
2024/03/17 01:36:28;;;;;;;17.63;6.90;;;14.40;99.90;;;;;;7406797;19;20019;-76
2024/03/17 01:38:57;;;;;;;19.10;7.07;;;14.40;99.90;;;;;;7382475;19;20011;-75
2024/03/17 01:41:23;;;;;;;13.45;7.35;;;14.40;99.90;;;;;;7383588;19;20376;-76
2024/03/17 01:43:52;;;;;;;18.00;7.07;;;14.40;99.90;;;;;;7382122;19;20016;-76
2024/03/17 01:46:18;;;;;;;15.75;7.15;;;14.40;99.90;;;;;;7382801;19;20010;-75
2024/03/17 01:48:48;;;;;;;15.45;7.25;;;14.40;99.90;;;;;;7382205;19;20014;-75
2024/03/17 01:51:15;;;;;;;20.23;6.93;;;14.50;99.90;;;;;;7405173;19;20014;-76
2024/03/17 01:53:48;;;;;;;23.30;7.00;;;14.50;99.90;;;;;;7381741;19;20062;-77
2024/03/17 01:56:15;;;;;;;20.23;6.95;;;14.40;99.90;;;;;;7382257;19;20067;-77
2024/03/17 01:58:47;;;;;;;20.13;7.30;;;14.50;99.90;;;;;;7381748;19;20437;-77
2024/03/17 02:01:21;;;;;;;14.00;7.07;;;14.50;99.90;;;;;;7382246;19;20019;-77
2024/03/17 02:04:01;;;;;;;10.75;6.15;;;14.50;99.90;;;;;;7383051;19;20006;-76
2024/03/17 02:06:27;;;;;;;12.20;6.75;;;14.50;99.90;;;;;;7403735;19;20342;-77
2024/03/17 02:08:59;;;;;;;18.50;7.40;;;14.50;99.90;;;;;;7375411;19;20394;-76
2024/03/17 02:11:27;;;;;;;16.15;7.10;;;14.50;99.90;;;;;;7381664;19;20010;-76
2024/03/17 02:13:56;;;;;;;18.65;7.45;;;14.50;99.90;;;;;;7378697;19;20405;-77
2024/03/17 02:16:23;;;;;;;16.70;7.40;;;14.50;99.90;;;;;;7376894;19;20019;-77
2024/03/17 02:18:56;;;;;;;20.10;7.55;;;14.50;99.90;;;;;;7383171;19;20013;-77
2024/03/17 02:21:23;;;;;;;18.65;6.85;;;14.50;99.90;;;;;;7402776;19;20010;-77
2024/03/17 02:23:54;;;;;;;17.92;7.72;;;14.60;99.90;;;;;;7383099;19;20010;-77
2024/03/17 02:26:21;;;;;;;;;;;14.60;99.90;;;;;;7383915;19;20015;-77
2024/03/17 02:28:50;;;;;;;18.45;7.15;;;14.60;99.90;;;;;;7382886;19;19932;-77
2024/03/17 02:31:17;;;;;;;17.65;7.72;;;14.50;99.90;;;;;;7383897;19;20007;-77
2024/03/17 02:33:46;;;;;;;19.30;7.60;;;14.60;99.90;;;;;;7383159;19;20011;-77
2024/03/17 02:36:13;;;;;;;20.05;8.07;;;14.60;99.90;;;;;;7402178;19;20031;-77
2024/03/17 02:41:27;;;;;;;27.88;9.88;;;14.60;99.90;;;;;;7385545;19;20014;-77
2024/03/17 02:43:55;;;;;;;18.05;9.10;;;14.60;99.90;;;;;;7383395;19;20010;-77
2024/03/17 02:46:24;;;;;;;21.25;8.55;;;14.60;99.90;;;;;;7383795;19;20240;-77
2024/03/17 02:48:56;;;;;;;13.45;8.05;;;14.70;99.90;;;;;;7382033;19;20013;-76
2024/03/17 02:51:25;;;;;;;20.10;7.93;;;14.60;99.90;;;;;;7405563;19;20320;-77
2024/03/17 02:53:54;;;;;;;13.50;7.15;;;14.60;99.90;;;;;;7381908;19;20034;-77
2024/03/17 02:56:22;;;;;;;19.98;7.82;;;14.60;99.90;;;;;;7381981;19;20288;-76
2024/03/17 02:58:54;;;;;;;19.20;7.65;;;14.60;99.90;;;;;;7383701;19;20256;-77
2024/03/17 03:01:22;;;;;;;;;;;14.70;99.90;;;;;;7381650;19;20007;-76
2024/03/17 03:03:51;;;;;;;12.75;5.95;;;14.70;99.90;;;;;;7386700;19;19927;-77
2024/03/17 03:06:20;;;;;;;17.00;7.30;;;14.70;99.90;;;;;;7405063;19;20014;-76
2024/03/17 03:08:50;;;;;;;16.73;6.95;;;14.80;99.90;;;;;;7382316;19;20006;-77
2024/03/17 03:11:20;;;;;;;13.70;6.85;;;14.80;99.90;;;;;;7383107;19;20070;-76
2024/03/17 03:13:49;;;;;;;13.75;6.20;;;14.80;99.90;;;;;;7383294;19;20034;-77
2024/03/17 03:16:20;;;;;;;19.10;6.45;;;14.90;99.90;;;;;;7381996;19;20010;-77
2024/03/17 03:18:49;;;;;;;21.25;6.50;;;14.90;99.90;;;;;;7383577;19;20058;-75
2024/03/17 03:21:21;;;;;;;13.30;6.25;;;14.90;99.90;;;;;;7402881;19;20014;-77
2024/03/17 03:23:50;;;;;;;16.02;6.05;;;14.90;99.90;;;;;;7381443;19;20255;-76
2024/03/17 03:26:19;;;;;;;15.38;6.60;;;15.00;99.90;;;;;;7383431;19;19998;-76
2024/03/17 03:28:48;;;;;;;27.15;8.52;;;15.00;99.90;;;;;;7386862;19;20092;-77
2024/03/17 03:31:20;;;;;;;19.33;8.10;;;15.00;99.90;;;;;;7382764;19;20027;-77
2024/03/17 03:33:49;;;;;;;16.45;7.05;;;14.90;99.90;;;;;;7402944;19;20003;-77
2024/03/17 03:36:19;;;;;;;15.80;6.97;;;14.90;99.90;;;;;;7386117;19;20078;-78
2024/03/17 03:38:48;;;;;;;13.48;6.57;;;14.90;99.90;;;;;;7383859;19;20381;-78
2024/03/17 03:41:17;;;;;;;21.77;6.88;;;14.90;99.90;;;;;;7383396;19;20373;-76
2024/03/17 03:43:47;;;;;;;16.90;6.82;;;14.90;99.90;;;;;;7381628;19;20020;-77
2024/03/17 03:46:16;;;;;;;19.20;6.88;;;15.00;99.90;;;;;;7381369;19;20247;-77
2024/03/17 03:48:47;;;;;;;19.50;6.43;;;15.00;99.90;;;;;;7400802;19;20019;-77
2024/03/17 03:51:16;;;;;;;18.20;6.93;;;15.00;99.90;;;;;;7380428;19;20671;-77
2024/03/17 03:53:45;;;;;;;19.30;7.85;;;15.10;99.90;;;;;;7380195;19;20021;-77
2024/03/17 03:56:15;;;;;;;20.25;7.85;;;15.00;99.90;;;;;;7380298;19;20011;-77
2024/03/17 03:58:46;;;;;;;23.08;7.90;;;15.00;99.90;;;;;;7381680;19;20119;-77
2024/03/17 04:01:21;;;;;;;22.13;7.15;;;14.90;99.90;;;;;;7381785;19;20032;-76
2024/03/17 04:03:53;;;;;;;16.92;7.18;;;14.90;99.90;;;;;;7408223;19;20007;-77
2024/03/17 04:06:21;;;;;;;18.55;6.68;;;14.90;99.90;;;;;;7385162;19;20014;-77
2024/03/17 04:08:50;;;;;;;15.32;6.20;;;14.90;99.90;;;;;;7377896;19;20098;-77
2024/03/17 04:11:19;;;;;;;12.90;6.68;;;14.80;99.90;;;;;;7379693;19;20003;-77
2024/03/17 04:13:48;;;;;;;13.25;6.25;;;14.80;99.90;;;;;;7379567;19;20006;-77
2024/03/17 04:16:17;;;;;;;18.00;7.28;;;14.80;99.90;;;;;;7380330;19;20077;-77
2024/03/17 04:18:46;;;;;;;18.08;6.03;;;14.80;99.90;;;;;;7398858;19;20006;-77
2024/03/17 04:21:17;;;;;;;21.50;6.40;;;14.80;99.90;;;;;;7378739;19;20031;-77
2024/03/17 04:23:47;;;;;;;15.45;6.78;;;14.80;99.90;;;;;;7379271;19;20003;-77
2024/03/17 04:26:16;;;;;;;17.85;6.70;;;14.80;99.90;;;;;;7379197;19;20032;-77
2024/03/17 04:28:45;;;;;;;12.30;6.25;;;14.80;99.90;;;;;;7378838;19;20020;-76
2024/03/17 04:31:14;;;;;;;15.80;6.35;;;14.80;99.90;;;;;;7379746;19;20011;-77
2024/03/17 04:33:43;;;;;;;16.17;6.47;;;14.80;99.90;;;;;;7400832;19;20006;-77
2024/03/17 04:36:13;;;;;;;15.27;6.50;;;14.80;99.90;;;;;;7378813;19;20019;-76
2024/03/17 04:38:44;;;;;;;15.63;6.57;;;14.80;99.90;;;;;;7381820;19;20007;-77
2024/03/17 04:41:17;;;;;;;18.77;6.40;;;14.80;99.90;;;;;;7387748;19;20062;-77
2024/03/17 04:43:46;;;;;;;19.88;7.05;;;14.80;99.90;;;;;;7382650;19;20027;-77
2024/03/17 04:46:15;;;;;;;14.23;6.03;;;14.80;99.90;;;;;;7379868;19;20021;-77
2024/03/17 04:48:44;;;;;;;22.17;6.75;;;14.80;99.90;;;;;;7399079;19;20003;-77
2024/03/17 04:51:18;;;;;;;12.82;6.45;;;14.80;99.90;;;;;;7378197;19;20013;-76
2024/03/17 04:53:49;;;;;;;15.27;6.95;;;14.80;99.90;;;;;;7377568;19;20254;-76
2024/03/17 04:56:18;;;;;;;19.05;6.82;;;14.80;99.90;;;;;;7378313;19;20297;-77
2024/03/17 04:58:44;;;;;;;19.95;7.05;;;14.80;99.90;;;;;;7379219;19;20023;-76
2024/03/17 05:01:13;;;;;;;15.88;6.95;;;14.80;99.90;;;;;;7378247;19;20014;-76
2024/03/17 05:03:42;;;;;;;14.68;6.10;;;14.80;99.90;;;;;;7399211;19;20299;-76
2024/03/17 05:06:11;;;;;;;13.38;6.25;;;14.80;99.90;;;;;;7377048;19;20280;-77
2024/03/17 05:08:40;;;;;;;15.43;7.32;;;14.80;99.90;;;;;;7376702;19;20235;-77
2024/03/17 05:11:11;;;;;;;12.93;6.30;;;14.80;99.90;;;;;;7378641;19;20038;-77
2024/03/17 05:13:41;;;;;;;17.05;6.72;;;14.80;99.90;;;;;;7378824;19;20035;-75
2024/03/17 05:16:10;;;;;;;15.38;6.50;;;14.80;99.90;;;;;;7382936;19;20020;-75
2024/03/17 05:18:40;;;;;;;14.63;5.70;;;14.80;99.90;;;;;;7407233;19;20076;-77
2024/03/17 05:21:10;;;;;;;13.45;5.30;;;14.80;99.90;;;;;;7380705;19;20006;-77
2024/03/17 05:23:40;;;;;;;16.30;5.63;;;14.80;99.90;;;;;;7379393;19;20002;-77
2024/03/17 05:26:11;;;;;;;17.08;5.50;;;14.80;99.90;;;;;;7379094;19;20002;-77
2024/03/17 05:28:39;;;;;;;17.70;4.72;;;14.80;99.90;;;;;;7380598;19;20010;-77
2024/03/17 05:31:09;;;;;;;20.80;5.88;;;14.80;99.90;;;;;;7379245;19;20020;-77
2024/03/17 05:33:38;;;;;;;14.88;6.22;;;14.80;99.90;;;;;;7402498;19;20091;-77
2024/03/17 05:36:07;;;;;;;12.40;6.35;;;14.80;99.90;;;;;;7380200;19;20026;-76
2024/03/17 05:38:36;;;;;;;27.45;7.25;;;14.80;99.90;;;;;;7378496;19;20002;-77
2024/03/17 05:41:06;;;;;;;18.23;7.43;;;14.80;99.90;;;;;;7377992;19;20014;-77
2024/03/17 05:43:39;;;;;;;12.13;6.95;;;14.80;99.90;;;;;;7377414;19;20006;-77
2024/03/17 05:46:09;;;;;;;24.58;8.45;;;14.80;99.90;;;;;;7375405;19;20358;-77
2024/03/17 05:48:39;;;;;;;20.40;6.82;;;14.80;99.90;;;;;;7396601;19;20027;-77
2024/03/17 05:51:07;;;;;;;24.50;7.65;;;14.80;99.90;;;;;;7382719;19;20005;-77
2024/03/17 05:53:37;;;;;;;13.65;6.97;;;14.80;99.90;;;;;;7388752;19;20029;-77
2024/03/17 05:56:07;;;;;;;16.45;6.93;;;14.80;99.90;;;;;;7389836;19;19999;-77
2024/03/17 05:58:38;;;;;;;17.40;7.20;;;14.80;99.90;;;;;;7385370;19;20280;-77
2024/03/17 06:01:09;;;;;;;12.88;5.95;;;14.80;99.90;;;;;;7406001;19;20023;-77
2024/03/17 06:03:38;;;;;;;14.60;6.05;;;14.80;99.90;;;;;;7383527;19;20305;-77
2024/03/17 06:06:09;;;;;;;21.25;6.30;;;14.80;99.90;;;;;;7382908;19;20588;-78
2024/03/17 06:08:38;;;;;;;11.85;6.07;;;14.90;99.90;;;;;;7382401;19;20023;-76
2024/03/17 06:11:08;;;;;;;16.83;7.00;;;14.90;99.90;;;;;;7384796;19;20012;-77
2024/03/17 06:13:39;;;;;;;19.02;6.60;;;14.90;99.90;;;;;;7384732;19;20020;-77
2024/03/17 06:16:08;;;;;;;;;;;14.90;99.90;;;;;;7406392;19;20025;-77
2024/03/17 06:18:37;;;;;;;14.90;5.68;;;14.90;99.90;;;;;;7383410;19;19914;-77
2024/03/17 06:21:09;;;;;;;15.85;6.70;;;14.90;99.90;;;;;;7382818;19;20436;-77
2024/03/17 06:23:38;;;;;;;21.98;6.72;;;14.90;99.90;;;;;;7383456;19;20011;-77
2024/03/17 06:26:07;;;;;;;22.05;6.35;;;14.80;99.90;;;;;;7386239;19;20382;-76
2024/03/17 06:28:38;;;;;;;17.20;6.85;;;14.80;99.90;;;;;;7383573;19;20014;-76
2024/03/17 06:31:09;;;;;;;22.40;6.93;;;14.80;99.90;;;;;;7407478;19;20232;-77
2024/03/17 06:33:38;;;;;;;23.05;7.82;;;14.90;99.90;;;;;;7391871;19;20007;-76
2024/03/17 06:36:08;;;;;;;21.20;7.00;;;14.80;99.90;;;;;;7386863;19;20010;-77
2024/03/17 06:38:38;;;;;;;14.23;6.75;;;14.90;99.90;;;;;;7383187;19;20002;-76
2024/03/17 06:41:07;;;;;;;14.25;6.15;;;14.90;99.90;;;;;;7382735;19;20007;-76
2024/03/17 06:43:39;;;;;;;17.67;6.55;;;14.90;99.90;;;;;;7383616;19;20058;-76
2024/03/17 06:46:10;;;;;;;20.00;6.22;;;14.90;99.90;;;;;;7404348;19;20035;-77
2024/03/17 06:48:39;;;;;;;;;;;14.90;99.90;;;;;;7382302;19;20002;-76
2024/03/17 06:51:08;;;;;;;15.68;5.80;;;14.90;99.90;;;;;;7382020;19;19970;-77
2024/03/17 06:53:37;;;;;;;16.17;6.57;;;14.90;99.90;;;;;;7382992;19;20007;-76
2024/03/17 06:56:06;;;;;;;15.50;6.60;;;14.90;99.90;;;;;;7382647;19;20010;-76
2024/03/17 06:58:34;;;;;;;23.75;7.05;;;14.90;99.90;;;;;;7382866;19;20015;-77
2024/03/17 07:01:08;;;;;;;18.98;7.30;;;14.90;99.90;;;;;;7404173;19;20017;-77
2024/03/17 07:03:38;;;;;;;17.67;7.53;;;14.90;99.90;;;;;;7379946;19;20010;-77
2024/03/17 07:06:07;;;;;;;17.90;7.38;;;15.00;99.90;;;;;;7381398;19;20010;-77
2024/03/17 07:08:37;;;;;;;19.17;7.40;;;15.00;99.90;;;;;;7383447;19;20002;-77
2024/03/17 07:11:07;;;;;;;25.48;7.68;;;15.00;99.90;;;;;;7389640;19;20086;-77
2024/03/17 07:13:37;;;;;;;22.10;7.43;;;15.00;99.90;;;;;;7386084;19;20127;-77
2024/03/17 07:16:09;;;;;;;19.85;7.20;;;15.00;99.90;;;;;;7404078;19;20283;-77
2024/03/17 07:18:38;;;;;;;22.05;7.13;;;15.00;99.90;;;;;;7381063;19;20003;-76
2024/03/17 07:21:09;;;;;;;19.55;7.72;;;15.10;99.90;;;;;;7382960;19;20074;-76
2024/03/17 07:23:39;;;;;;;15.27;7.63;;;15.10;99.90;;;;;;7381430;19;20028;-77
2024/03/17 07:26:09;;;;;;;16.90;6.68;;;15.10;99.90;;;;;;7382516;19;20027;-77
2024/03/17 07:28:41;;;;;;;15.15;7.18;;;15.10;99.90;;;;;;7382155;19;20065;-77
2024/03/17 07:31:12;;;;;;;25.75;8.35;;;15.20;99.90;;;;;;7404198;19;20052;-77
2024/03/17 07:33:41;;;;;;;19.00;7.85;;;15.20;99.90;;;;;;7382343;19;20010;-77
2024/03/17 07:36:13;;;;;;;28.50;8.38;;;15.20;99.90;;;;;;7381175;19;20025;-76
2024/03/17 07:38:42;;;;;;;16.90;6.88;;;15.20;99.90;;;;;;7382455;19;20024;-76
2024/03/17 07:41:12;;;;;;;23.88;7.43;;;15.20;99.90;;;;;;7383665;19;20028;-76
2024/03/17 07:43:41;;;;;;;18.08;7.05;;;15.20;99.90;;;;;;7383296;19;20019;-77
2024/03/17 07:46:14;;;;;;;15.38;6.68;;;15.20;99.90;;;;;;7404044;19;20010;-76
2024/03/17 07:48:44;;;;;;;17.38;6.55;;;15.30;99.90;;;;;;7385463;19;20002;-77
2024/03/17 07:51:14;;;;;;;20.77;7.05;;;15.30;99.90;;;;;;7381975;19;20015;-77
2024/03/17 07:53:48;;;;;;;21.58;7.75;;;15.30;99.90;;;;;;7380541;19;20110;-76
2024/03/17 07:56:19;;;;;;;26.52;7.30;;;15.30;99.90;;;;;;7379361;19;20062;-77
2024/03/17 07:58:51;;;;;;;25.60;6.97;;;15.30;99.90;;;;;;7380944;19;20018;-77
2024/03/17 08:01:22;;;;;;;16.23;6.18;;;15.40;99.90;;;;;;7400124;19;20362;-77
2024/03/17 08:03:55;;;;;;;18.05;7.35;;;15.40;99.90;;;;;;7402644;19;20007;-77
2024/03/17 08:06:24;;;;;;;19.83;6.65;;;15.40;99.90;;;;;;7380457;19;20553;-77
2024/03/17 08:08:54;;;;;;;15.68;7.05;;;15.40;99.90;;;;;;7380291;19;20147;-77
2024/03/17 08:11:24;;;;;;;17.45;6.57;;;15.40;99.90;;;;;;7381373;19;20003;-77
2024/03/17 08:13:54;;;;;;;16.55;6.75;;;15.40;99.90;;;;;;7380783;19;20365;-78
2024/03/17 08:16:25;;;;;;;15.63;5.93;;;15.40;99.90;;;;;;7404871;19;20027;-77
2024/03/17 08:18:54;;;;;;;17.70;6.00;;;15.50;99.90;;;;;;7402338;19;20006;-77
2024/03/17 08:21:22;;;;;;;20.80;7.40;;;15.50;99.90;;;;;;7381569;19;20014;-77
2024/03/17 08:23:51;;;;;;;25.23;8.65;;;15.50;99.90;;;;;;7382638;19;20007;-77
2024/03/17 08:26:20;;;;;;;23.10;8.88;;;15.50;99.90;;;;;;7391938;19;20031;-78
2024/03/17 08:28:49;;;;;;;14.30;6.68;;;15.50;99.90;;;;;;7388740;19;20002;-78
2024/03/17 08:31:18;;;;;;;28.15;6.85;;;15.60;99.90;;;;;;7401766;19;20009;-77
2024/03/17 08:33:49;;;;;;;16.02;7.00;;;15.60;99.90;;;;;;7379720;19;20003;-78
2024/03/17 08:36:22;;;;;;;14.45;6.07;;;15.60;99.90;;;;;;7383040;19;20007;-78
2024/03/17 08:38:51;;;;;;;21.08;6.10;;;15.60;99.90;;;;;;7383660;19;20006;-78
2024/03/17 08:41:19;;;;;;;15.93;6.22;;;15.70;99.90;;;;;;7383545;19;20366;-78
2024/03/17 08:43:48;;;;;;;12.13;6.20;;;15.70;99.90;;;;;;7383103;19;20014;-78
2024/03/17 08:46:18;;;;;;;21.60;6.53;;;15.70;99.90;;;;;;7404859;19;20011;-77
2024/03/17 08:48:50;;;;;;;17.08;6.22;;;15.80;99.90;;;;;;7377675;19;20002;-78
2024/03/17 08:51:19;;;;;;;15.73;6.45;;;15.70;99.90;;;;;;7381224;19;20007;-78
2024/03/17 08:53:47;;;;;;;18.75;6.82;;;15.80;99.90;;;;;;7382112;19;20074;-78
2024/03/17 08:56:16;;;;;;;18.27;6.63;;;15.80;99.90;;;;;;7381641;19;20062;-77
2024/03/17 08:58:45;;;;;;;17.77;5.95;;;15.80;99.90;;;;;;7379699;19;20003;-77
2024/03/17 09:01:18;;;;;;;14.23;6.68;;;15.80;99.90;;;;;;7403992;19;20010;-78
2024/03/17 09:03:52;;;;;;;17.20;6.57;;;15.80;99.90;;;;;;7388836;19;20021;-78
2024/03/17 09:06:21;;;;;;;18.15;6.90;;;15.80;99.90;;;;;;7385530;19;20006;-78
2024/03/17 09:08:51;;;;;;;21.23;6.38;;;15.90;99.90;;;;;;7380102;19;20229;-77
2024/03/17 09:11:24;;;;;;;17.92;6.50;;;15.90;99.90;;;;;;7379318;19;20056;-77
2024/03/17 09:13:53;;;;;;;17.67;6.07;;;15.90;99.90;;;;;;7381857;19;20006;-77
2024/03/17 09:16:22;;;;;;;18.25;6.38;;;15.90;99.90;;;;;;7400048;19;20023;-77
2024/03/17 09:18:56;;;;;;;12.68;6.43;;;16.00;99.90;;;;;;7377877;19;20010;-78
2024/03/17 09:21:26;;;;;;;16.05;6.15;;;16.00;99.90;;;;;;7381642;19;20003;-77
2024/03/17 09:23:54;;;;;;;15.02;6.55;;;16.10;99.90;;;;;;7377871;19;20006;-77
2024/03/17 09:26:23;;;;;;;12.52;6.47;;;16.10;99.90;;;;;;7379111;19;20094;-78
2024/03/17 09:28:51;;;;;;;16.58;6.85;;;16.10;99.90;;;;;;7378900;19;20040;-77
2024/03/17 09:31:20;;;;;;;22.17;6.65;;;16.10;99.90;;;;;;7400003;19;20042;-78
2024/03/17 09:33:49;;;;;;;25.95;6.43;;;16.20;99.90;;;;;;7380296;19;20006;-78
2024/03/17 09:36:21;;;;;;;18.60;6.63;;;16.20;99.90;;;;;;7380884;19;20289;-78
2024/03/17 09:38:50;;;;;;;24.67;7.50;;;16.20;99.90;;;;;;7378993;19;20003;-76
2024/03/17 09:41:21;;;;;;;21.27;6.38;;;16.20;99.90;;;;;;7385540;19;20308;-76
2024/03/17 09:43:50;;;;;;;15.93;6.68;;;16.20;99.90;;;;;;7382729;19;20026;-75
2024/03/17 09:46:21;;;;;;;16.98;6.55;;;16.10;99.90;;;;;;7398076;19;20334;-74
2024/03/17 09:48:49;;;;;;;24.83;7.40;;;16.10;99.90;;;;;;7376557;19;20014;-74
2024/03/17 09:51:24;;;;;;;26.05;7.22;;;16.10;99.90;;;;;;7376407;19;20031;-75
2024/03/17 09:53:54;;;;;;;22.77;6.85;;;16.10;99.90;;;;;;7376079;19;20353;-74
2024/03/17 09:56:24;;;;;;;19.13;7.13;;;16.10;99.90;;;;;;7375840;19;20006;-74
2024/03/17 09:58:54;;;;;;;27.10;7.40;;;16.10;99.90;;;;;;7377447;19;20031;-73
2024/03/17 10:01:23;;;;;;;22.90;7.25;;;16.10;99.90;;;;;;7398376;19;20010;-75
2024/03/17 10:03:54;;;;;;;16.85;6.57;;;16.10;99.90;;;;;;7376010;19;20079;-76
2024/03/17 10:06:27;;;;;;;20.25;7.13;;;16.20;99.90;;;;;;7377651;19;20694;-77
2024/03/17 10:08:58;;;;;;;15.65;5.43;;;16.20;99.90;;;;;;7378384;19;20003;-78
2024/03/17 10:11:34;;;;;;;24.77;6.22;;;16.20;99.90;;;;;;7379054;19;19999;-77
2024/03/17 10:14:05;;;;;;;19.58;4.75;;;16.20;99.90;;;;;;7378108;19;20040;-77
2024/03/17 10:16:35;;;;;;;21.88;5.47;;;16.20;99.90;;;;;;7400715;19;20007;-78
2024/03/17 10:19:11;;;;;;;13.60;4.20;;;16.20;99.90;;;;;;7296122;19;20010;-77
2024/03/17 10:21:49;;;;;;;17.20;4.43;;;16.20;99.90;;;;;;7383033;19;19998;-76
2024/03/17 10:24:23;;;;;;;14.68;4.65;;;16.20;99.90;;;;;;7380073;19;20016;-76
2024/03/17 10:26:53;;;;;;;19.55;5.25;;;16.20;99.90;;;;;;7374654;19;20249;-74
2024/03/17 10:29:27;;;;;;;16.73;5.90;;;16.20;99.90;;;;;;7374141;19;20007;-74
2024/03/17 10:31:57;;;;;;;14.63;5.40;;;16.20;99.90;;;;;;7375768;19;20395;-74
2024/03/17 10:34:30;;;;;;;24.42;5.15;;;16.20;99.90;;;;;;7401676;19;20007;-74
2024/03/17 10:37:13;;;;;;;16.52;4.97;;;16.30;99.90;;;;;;7380716;19;20018;-76
2024/03/17 10:39:42;;;;;;;22.08;4.68;;;16.30;99.90;;;;;;7384066;19;20260;-75
2024/03/17 10:42:13;;;;;;;24.10;5.00;;;16.30;99.90;;;;;;7384653;19;20303;-75
2024/03/17 10:44:45;;;;;;;22.48;5.20;;;16.30;99.90;;;;;;7383997;19;20426;-76
2024/03/17 10:47:27;;;;;;;26.90;12.35;;;16.40;99.90;;;;;;7383770;19;20389;-75
2024/03/17 10:49:56;;;;;;;;;;;16.40;99.90;;;;;;7384107;19;20015;-76
2024/03/17 10:52:28;;;;;;;27.38;6.07;;;16.40;99.90;;;;;;7404641;19;20215;-75
2024/03/17 10:54:58;;;;;;;20.73;5.28;;;16.40;99.90;;;;;;7383789;19;20024;-74
2024/03/17 10:57:33;;;;;;;18.35;5.10;;;16.40;99.90;;;;;;7385252;19;20369;-76
2024/03/17 11:00:04;;;;;;;15.52;4.35;;;16.40;99.90;;;;;;7384159;19;20019;-75
2024/03/17 11:02:35;;;;;;;17.15;4.60;;;16.40;99.90;;;;;;7382421;19;20011;-74
2024/03/17 11:05:07;;;;;;;16.17;4.25;;;16.40;99.90;;;;;;7381264;19;20019;-75
2024/03/17 11:07:45;;;;;;;15.82;4.60;;;16.40;99.90;;;;;;7401761;19;20011;-76
2024/03/17 11:10:19;;;;;;;21.63;4.50;;;16.50;99.90;;;;;;7380976;19;20044;-74
2024/03/17 11:12:49;;;;;;;19.42;4.50;;;16.50;99.90;;;;;;7383933;19;20063;-75
2024/03/17 11:15:44;;;;;;;21.85;4.80;;;16.50;99.90;;;;;;7382415;19;20095;-74
2024/03/17 11:18:46;;;;;;;22.77;4.65;;;16.40;99.90;;;;;;7381801;19;20003;-73
2024/03/17 11:21:25;;;;;;;18.83;4.38;;;16.40;99.90;;;;;;7381640;19;20011;-75
2024/03/17 11:24:08;;;;;;;23.73;5.80;;;16.50;99.90;;;;;;7381643;19;20126;-75
2024/03/17 11:26:37;;;;;;;21.85;5.88;;;16.50;99.90;;;;;;7381831;19;20010;-77
2024/03/17 11:29:09;;;;;;;19.23;7.30;;;16.50;99.90;;;;;;7385383;19;20028;-77
2024/03/17 11:31:52;;;;;;;17.75;5.93;;;16.60;99.90;;;;;;7406748;19;20011;-77
2024/03/17 11:34:40;;;;;;;22.02;5.97;;;16.60;99.90;;;;;;7388263;19;20002;-78
2024/03/17 11:37:08;;;;;;;26.92;5.10;;;16.60;99.90;;;;;;7386087;19;20235;-77
2024/03/17 11:40:00;;;;;;;21.52;5.22;;;16.70;99.90;;;;;;7386348;19;20365;-78
2024/03/17 11:42:29;;;;;;;;;;;16.70;99.90;;;;;;7386243;19;20371;-77
2024/03/17 11:45:03;;;;;;;19.65;5.72;;;16.70;99.90;;;;;;7385735;19;20219;-78
2024/03/17 11:47:40;;;;;;;21.10;5.53;;;16.70;99.90;;;;;;7387193;19;20003;-77
2024/03/17 11:50:09;;;;;;;18.38;5.55;;;16.70;99.90;;;;;;7384820;19;20011;-77
2024/03/17 11:52:40;;;;;;;28.15;5.50;;;16.70;99.90;;;;;;7409289;19;20015;-77
2024/03/17 11:55:16;;;;;;;26.80;7.20;;;16.70;99.90;;;;;;7381573;19;20003;-76
2024/03/17 11:57:45;;;;;;;20.30;6.03;;;16.70;99.90;;;;;;7381552;19;20011;-75
2024/03/17 12:00:20;;;;;;;22.83;5.70;;;16.70;99.90;;;;;;7380242;19;20035;-76
2024/03/17 12:02:51;;;;;;;18.55;5.57;;;16.60;99.90;;;;;;7381094;19;20023;-76
2024/03/17 12:05:18;;;;;;;24.58;5.93;;;16.70;99.90;;;;;;7379688;19;20019;-76
2024/03/17 12:07:47;;;;;;;26.48;6.22;;;16.70;99.90;;;;;;7402739;19;20378;-76
2024/03/17 12:10:16;;;;;;;22.08;6.50;;;16.60;99.90;;;;;;7383086;19;20011;-76
2024/03/17 12:12:50;;;;;;;24.25;6.85;;;16.60;99.90;;;;;;7380037;19;20014;-77
2024/03/17 12:15:19;;;;;;;25.15;6.38;;;16.60;99.90;;;;;;7379945;19;20375;-77
2024/03/17 12:17:48;;;;;;;22.60;6.25;;;16.60;99.90;;;;;;7381364;19;20024;-77
2024/03/17 12:20:18;;;;;;;16.67;6.00;;;16.50;99.90;;;;;;7382254;19;20012;-76
2024/03/17 12:22:50;;;;;;;23.40;6.68;;;16.50;99.90;;;;;;7401756;19;20010;-76
2024/03/17 12:25:20;;;;;;;22.33;6.25;;;16.30;99.90;;;;;;7381088;19;20362;-77
2024/03/17 12:27:55;;;;;;;17.98;5.60;;;16.30;99.90;;;;;;7382397;19;20044;-75
2024/03/17 12:30:22;;;;;;;17.60;5.93;;;16.30;99.90;;;;;;7379236;19;20029;-75
2024/03/17 12:32:52;;;;;;;23.23;5.43;;;16.40;99.90;;;;;;7380008;19;20307;-76
2024/03/17 12:35:18;;;;;;;20.27;5.53;;;16.30;99.90;;;;;;7380015;19;20006;-76
2024/03/17 12:37:48;;;;;;;19.13;6.10;;;16.30;99.90;;;;;;7404936;19;20068;-75
2024/03/17 12:40:24;;;;;;;16.90;4.78;;;16.10;99.90;;;;;;7382699;19;20094;-77
2024/03/17 12:42:54;;;;;;;21.65;5.60;;;16.10;99.90;;;;;;7378341;19;20078;-77
2024/03/17 12:45:22;;;;;;;18.57;6.00;;;16.20;99.90;;;;;;7379997;19;20358;-75
2024/03/17 12:47:52;;;;;;;16.20;5.32;;;16.20;99.90;;;;;;7377938;19;20489;-76
2024/03/17 12:50:19;;;;;;;17.80;5.47;;;16.20;99.90;;;;;;7377391;19;20361;-77
2024/03/17 12:52:56;;;;;;;18.73;5.63;;;16.30;99.90;;;;;;7399321;19;20014;-76
2024/03/17 13:01:20;;;;;;;25.85;6.45;;;16.50;99.90;;;;;;7374797;19;20011;-79